sensor_id;sensor_type;location;lat;lon;timestamp;P1;durP1;ratioP1;P2;durP2;ratioP2
2706;SDS011;7819;48.046;7.642;2022-08-03T00:01:23;1.97;;;1.67;;
2706;SDS011;7819;48.046;7.642;2022-08-03T00:03:48;2.20;;;1.63;;
2706;SDS011;7819;48.046;7.642;2022-08-03T00:06:13;4.37;;;1.97;;
2706;SDS011;7819;48.046;7.642;2022-08-03T00:08:38;2.50;;;1.60;;
2706;SDS011;7819;48.046;7.642;2022-08-03T00:11:03;5.77;;;1.90;;
2706;SDS011;7819;48.046;7.642;2022-08-03T00:13:30;2.20;;;1.50;;
2706;SDS011;7819;48.046;7.642;2022-08-03T00:15:56;1.93;;;1.60;;
2706;SDS011;7819;48.046;7.642;2022-08-03T00:18:21;2.70;;;2.03;;
2706;SDS011;7819;48.046;7.642;2022-08-03T00:20:46;1.73;;;1.30;;
2706;SDS011;7819;48.046;7.642;2022-08-03T00:23:12;2.40;;;1.60;;
2706;SDS011;7819;48.046;7.642;2022-08-03T00:25:37;1.77;;;1.40;;
2706;SDS011;7819;48.046;7.642;2022-08-03T00:28:03;1.70;;;1.60;;
2706;SDS011;7819;48.046;7.642;2022-08-03T00:30:28;1.60;;;1.50;;
2706;SDS011;7819;48.046;7.642;2022-08-03T00:32:53;2.90;;;1.97;;
2706;SDS011;7819;48.046;7.642;2022-08-03T00:35:19;1.80;;;1.70;;
2706;SDS011;7819;48.046;7.642;2022-08-03T00:37:44;1.90;;;1.70;;
2706;SDS011;7819;48.046;7.642;2022-08-03T00:40:12;1.87;;;1.50;;
2706;SDS011;7819;48.046;7.642;2022-08-03T00:42:57;1.50;;;1.30;;
2706;SDS011;7819;48.046;7.642;2022-08-03T00:45:24;2.87;;;2.13;;
2706;SDS011;7819;48.046;7.642;2022-08-03T00:47:50;1.50;;;1.40;;
2706;SDS011;7819;48.046;7.642;2022-08-03T00:50:15;1.50;;;1.27;;
2706;SDS011;7819;48.046;7.642;2022-08-03T00:52:41;2.03;;;1.70;;
2706;SDS011;7819;48.046;7.642;2022-08-03T00:55:06;1.97;;;1.70;;
2706;SDS011;7819;48.046;7.642;2022-08-03T00:57:32;2.70;;;1.97;;
2706;SDS011;7819;48.046;7.642;2022-08-03T00:59:57;1.97;;;1.50;;
2706;SDS011;7819;48.046;7.642;2022-08-03T01:02:24;3.10;;;1.90;;
2706;SDS011;7819;48.046;7.642;2022-08-03T01:04:49;1.60;;;1.27;;
2706;SDS011;7819;48.046;7.642;2022-08-03T01:07:16;1.63;;;1.50;;
2706;SDS011;7819;48.046;7.642;2022-08-03T01:12:21;2.23;;;1.67;;
2706;SDS011;7819;48.046;7.642;2022-08-03T01:17:18;2.47;;;1.30;;
2706;SDS011;7819;48.046;7.642;2022-08-03T01:19:48;2.10;;;1.90;;
2706;SDS011;7819;48.046;7.642;2022-08-03T01:22:39;2.80;;;2.60;;
2706;SDS011;7819;48.046;7.642;2022-08-03T01:25:11;2.40;;;1.90;;
2706;SDS011;7819;48.046;7.642;2022-08-03T01:27:54;2.73;;;1.50;;
2706;SDS011;7819;48.046;7.642;2022-08-03T01:30:22;2.70;;;1.67;;
2706;SDS011;7819;48.046;7.642;2022-08-03T01:35:25;2.33;;;1.90;;
2706;SDS011;7819;48.046;7.642;2022-08-03T01:37:55;2.40;;;1.90;;
2706;SDS011;7819;48.046;7.642;2022-08-03T01:40:21;3.60;;;1.37;;
2706;SDS011;7819;48.046;7.642;2022-08-03T01:42:48;3.10;;;1.50;;
2706;SDS011;7819;48.046;7.642;2022-08-03T01:45:14;1.40;;;1.30;;
2706;SDS011;7819;48.046;7.642;2022-08-03T01:47:42;2.27;;;1.20;;
2706;SDS011;7819;48.046;7.642;2022-08-03T01:50:08;2.60;;;1.90;;
2706;SDS011;7819;48.046;7.642;2022-08-03T01:52:34;1.80;;;1.60;;
2706;SDS011;7819;48.046;7.642;2022-08-03T01:55:02;1.50;;;1.40;;
2706;SDS011;7819;48.046;7.642;2022-08-03T01:57:27;2.10;;;1.50;;
2706;SDS011;7819;48.046;7.642;2022-08-03T01:59:53;3.47;;;2.20;;
2706;SDS011;7819;48.046;7.642;2022-08-03T02:02:19;1.97;;;1.50;;
2706;SDS011;7819;48.046;7.642;2022-08-03T02:04:46;2.60;;;1.70;;
2706;SDS011;7819;48.046;7.642;2022-08-03T02:07:11;2.37;;;1.87;;
2706;SDS011;7819;48.046;7.642;2022-08-03T02:09:38;1.73;;;1.47;;
2706;SDS011;7819;48.046;7.642;2022-08-03T02:12:06;1.40;;;1.30;;
2706;SDS011;7819;48.046;7.642;2022-08-03T02:14:32;1.53;;;1.40;;
2706;SDS011;7819;48.046;7.642;2022-08-03T02:16:57;1.70;;;1.60;;
2706;SDS011;7819;48.046;7.642;2022-08-03T02:19:23;4.10;;;2.20;;
2706;SDS011;7819;48.046;7.642;2022-08-03T02:21:48;3.43;;;2.30;;
2706;SDS011;7819;48.046;7.642;2022-08-03T02:24:15;1.83;;;1.73;;
2706;SDS011;7819;48.046;7.642;2022-08-03T02:26:40;1.60;;;1.17;;
2706;SDS011;7819;48.046;7.642;2022-08-03T02:29:10;2.27;;;1.83;;
2706;SDS011;7819;48.046;7.642;2022-08-03T02:31:37;2.10;;;1.90;;
2706;SDS011;7819;48.046;7.642;2022-08-03T02:34:05;3.17;;;2.00;;
2706;SDS011;7819;48.046;7.642;2022-08-03T02:36:33;3.50;;;1.70;;
2706;SDS011;7819;48.046;7.642;2022-08-03T02:39:00;1.83;;;1.70;;
2706;SDS011;7819;48.046;7.642;2022-08-03T02:41:28;2.13;;;1.93;;
2706;SDS011;7819;48.046;7.642;2022-08-03T02:43:54;3.00;;;1.90;;
2706;SDS011;7819;48.046;7.642;2022-08-03T02:46:21;1.83;;;1.60;;
2706;SDS011;7819;48.046;7.642;2022-08-03T02:48:48;2.97;;;1.97;;
2706;SDS011;7819;48.046;7.642;2022-08-03T02:51:14;2.27;;;1.60;;
2706;SDS011;7819;48.046;7.642;2022-08-03T02:53:40;3.40;;;2.27;;
2706;SDS011;7819;48.046;7.642;2022-08-03T02:56:07;3.67;;;2.10;;
2706;SDS011;7819;48.046;7.642;2022-08-03T02:58:33;2.00;;;1.80;;
2706;SDS011;7819;48.046;7.642;2022-08-03T03:00:58;4.20;;;2.00;;
2706;SDS011;7819;48.046;7.642;2022-08-03T03:03:24;1.90;;;1.67;;
2706;SDS011;7819;48.046;7.642;2022-08-03T03:05:50;2.57;;;1.80;;
2706;SDS011;7819;48.046;7.642;2022-08-03T03:08:19;2.30;;;1.73;;
2706;SDS011;7819;48.046;7.642;2022-08-03T03:10:45;2.50;;;1.93;;
2706;SDS011;7819;48.046;7.642;2022-08-03T03:13:11;2.10;;;1.60;;
2706;SDS011;7819;48.046;7.642;2022-08-03T03:15:37;2.10;;;1.90;;
2706;SDS011;7819;48.046;7.642;2022-08-03T03:18:03;1.97;;;1.70;;
2706;SDS011;7819;48.046;7.642;2022-08-03T03:20:29;2.37;;;1.90;;
2706;SDS011;7819;48.046;7.642;2022-08-03T03:23:00;2.80;;;1.80;;
2706;SDS011;7819;48.046;7.642;2022-08-03T03:25:25;2.33;;;1.80;;
2706;SDS011;7819;48.046;7.642;2022-08-03T03:27:51;2.53;;;2.00;;
2706;SDS011;7819;48.046;7.642;2022-08-03T03:30:17;2.40;;;2.20;;
2706;SDS011;7819;48.046;7.642;2022-08-03T03:32:42;4.50;;;2.87;;
2706;SDS011;7819;48.046;7.642;2022-08-03T03:35:07;2.40;;;2.00;;
2706;SDS011;7819;48.046;7.642;2022-08-03T03:37:33;2.30;;;1.83;;
2706;SDS011;7819;48.046;7.642;2022-08-03T03:39:59;2.30;;;1.93;;
2706;SDS011;7819;48.046;7.642;2022-08-03T03:42:24;1.80;;;1.70;;
2706;SDS011;7819;48.046;7.642;2022-08-03T03:44:49;2.30;;;1.93;;
2706;SDS011;7819;48.046;7.642;2022-08-03T03:47:14;2.40;;;2.00;;
2706;SDS011;7819;48.046;7.642;2022-08-03T03:49:40;5.47;;;2.30;;
2706;SDS011;7819;48.046;7.642;2022-08-03T03:52:06;2.13;;;1.60;;
2706;SDS011;7819;48.046;7.642;2022-08-03T03:54:38;1.97;;;1.77;;
2706;SDS011;7819;48.046;7.642;2022-08-03T03:57:04;2.60;;;2.40;;
2706;SDS011;7819;48.046;7.642;2022-08-03T03:59:29;2.90;;;2.33;;
2706;SDS011;7819;48.046;7.642;2022-08-03T04:01:54;3.50;;;2.50;;
2706;SDS011;7819;48.046;7.642;2022-08-03T04:04:20;2.53;;;2.27;;
2706;SDS011;7819;48.046;7.642;2022-08-03T04:07:03;3.00;;;2.30;;
2706;SDS011;7819;48.046;7.642;2022-08-03T04:09:47;7.27;;;2.97;;
2706;SDS011;7819;48.046;7.642;2022-08-03T04:12:31;2.50;;;2.10;;
2706;SDS011;7819;48.046;7.642;2022-08-03T04:14:57;2.40;;;2.20;;
2706;SDS011;7819;48.046;7.642;2022-08-03T04:17:24;2.27;;;2.07;;
2706;SDS011;7819;48.046;7.642;2022-08-03T04:19:51;2.43;;;1.93;;
2706;SDS011;7819;48.046;7.642;2022-08-03T04:22:18;3.83;;;2.10;;
2706;SDS011;7819;48.046;7.642;2022-08-03T04:24:47;2.67;;;2.47;;
2706;SDS011;7819;48.046;7.642;2022-08-03T04:27:14;2.43;;;2.13;;
2706;SDS011;7819;48.046;7.642;2022-08-03T04:29:40;4.40;;;3.30;;
2706;SDS011;7819;48.046;7.642;2022-08-03T04:32:07;4.13;;;2.33;;
2706;SDS011;7819;48.046;7.642;2022-08-03T04:34:33;2.40;;;2.20;;
2706;SDS011;7819;48.046;7.642;2022-08-03T04:36:59;2.23;;;2.00;;
2706;SDS011;7819;48.046;7.642;2022-08-03T04:39:25;3.27;;;2.73;;
2706;SDS011;7819;48.046;7.642;2022-08-03T04:41:55;3.10;;;2.30;;
2706;SDS011;7819;48.046;7.642;2022-08-03T04:44:22;2.57;;;2.37;;
2706;SDS011;7819;48.046;7.642;2022-08-03T04:46:48;7.17;;;3.23;;
2706;SDS011;7819;48.046;7.642;2022-08-03T04:49:14;4.53;;;2.50;;
2706;SDS011;7819;48.046;7.642;2022-08-03T04:51:39;3.10;;;2.80;;
2706;SDS011;7819;48.046;7.642;2022-08-03T04:54:06;3.70;;;3.40;;
2706;SDS011;7819;48.046;7.642;2022-08-03T04:56:35;4.47;;;2.60;;
2706;SDS011;7819;48.046;7.642;2022-08-03T04:59:03;4.20;;;2.70;;
2706;SDS011;7819;48.046;7.642;2022-08-03T05:01:28;2.77;;;2.10;;
2706;SDS011;7819;48.046;7.642;2022-08-03T05:03:53;2.33;;;2.13;;
2706;SDS011;7819;48.046;7.642;2022-08-03T05:06:18;2.50;;;2.30;;
2706;SDS011;7819;48.046;7.642;2022-08-03T05:08:43;3.10;;;2.80;;
2706;SDS011;7819;48.046;7.642;2022-08-03T05:11:09;4.93;;;3.47;;
2706;SDS011;7819;48.046;7.642;2022-08-03T05:13:34;4.77;;;2.87;;
2706;SDS011;7819;48.046;7.642;2022-08-03T05:15:59;2.97;;;2.77;;
2706;SDS011;7819;48.046;7.642;2022-08-03T05:18:24;3.13;;;2.70;;
2706;SDS011;7819;48.046;7.642;2022-08-03T05:20:49;4.10;;;2.97;;
2706;SDS011;7819;48.046;7.642;2022-08-03T05:23:15;5.23;;;3.00;;
2706;SDS011;7819;48.046;7.642;2022-08-03T05:25:40;3.10;;;2.50;;
2706;SDS011;7819;48.046;7.642;2022-08-03T05:28:05;4.20;;;3.10;;
2706;SDS011;7819;48.046;7.642;2022-08-03T05:30:30;3.80;;;2.60;;
2706;SDS011;7819;48.046;7.642;2022-08-03T05:32:55;4.70;;;3.40;;
2706;SDS011;7819;48.046;7.642;2022-08-03T05:35:20;4.20;;;3.00;;
2706;SDS011;7819;48.046;7.642;2022-08-03T05:37:46;2.57;;;2.20;;
2706;SDS011;7819;48.046;7.642;2022-08-03T05:40:11;3.57;;;3.00;;
2706;SDS011;7819;48.046;7.642;2022-08-03T05:42:36;2.70;;;2.50;;
2706;SDS011;7819;48.046;7.642;2022-08-03T05:45:05;8.83;;;3.30;;
2706;SDS011;7819;48.046;7.642;2022-08-03T05:47:40;3.80;;;2.77;;
2706;SDS011;7819;48.046;7.642;2022-08-03T05:50:05;3.47;;;2.90;;
2706;SDS011;7819;48.046;7.642;2022-08-03T05:52:30;3.80;;;2.83;;
2706;SDS011;7819;48.046;7.642;2022-08-03T05:54:56;3.90;;;3.10;;
2706;SDS011;7819;48.046;7.642;2022-08-03T05:57:21;3.63;;;2.73;;
2706;SDS011;7819;48.046;7.642;2022-08-03T05:59:46;5.53;;;2.40;;
2706;SDS011;7819;48.046;7.642;2022-08-03T06:02:11;2.63;;;2.43;;
2706;SDS011;7819;48.046;7.642;2022-08-03T06:04:36;3.67;;;3.17;;
2706;SDS011;7819;48.046;7.642;2022-08-03T06:07:01;4.13;;;2.27;;
2706;SDS011;7819;48.046;7.642;2022-08-03T06:09:27;6.43;;;2.50;;
2706;SDS011;7819;48.046;7.642;2022-08-03T06:11:53;3.50;;;2.70;;
2706;SDS011;7819;48.046;7.642;2022-08-03T06:14:18;4.03;;;2.30;;
2706;SDS011;7819;48.046;7.642;2022-08-03T06:16:44;4.50;;;2.87;;
2706;SDS011;7819;48.046;7.642;2022-08-03T06:19:09;3.40;;;3.10;;
2706;SDS011;7819;48.046;7.642;2022-08-03T06:21:34;11.53;;;4.20;;
2706;SDS011;7819;48.046;7.642;2022-08-03T06:23:59;5.40;;;4.07;;
2706;SDS011;7819;48.046;7.642;2022-08-03T06:26:25;7.47;;;5.55;;
2706;SDS011;7819;48.046;7.642;2022-08-03T06:28:51;10.73;;;6.47;;
2706;SDS011;7819;48.046;7.642;2022-08-03T06:31:16;6.27;;;4.70;;
2706;SDS011;7819;48.046;7.642;2022-08-03T06:33:41;6.67;;;4.53;;
2706;SDS011;7819;48.046;7.642;2022-08-03T06:36:06;4.73;;;3.03;;
2706;SDS011;7819;48.046;7.642;2022-08-03T06:38:32;5.73;;;4.13;;
2706;SDS011;7819;48.046;7.642;2022-08-03T06:40:57;5.77;;;3.97;;
2706;SDS011;7819;48.046;7.642;2022-08-03T06:43:22;6.78;;;4.88;;
2706;SDS011;7819;48.046;7.642;2022-08-03T06:45:47;3.40;;;2.70;;
2706;SDS011;7819;48.046;7.642;2022-08-03T06:48:12;2.90;;;2.60;;
2706;SDS011;7819;48.046;7.642;2022-08-03T06:50:38;6.77;;;3.10;;
2706;SDS011;7819;48.046;7.642;2022-08-03T06:53:04;3.20;;;2.73;;
2706;SDS011;7819;48.046;7.642;2022-08-03T06:55:29;3.30;;;2.03;;
2706;SDS011;7819;48.046;7.642;2022-08-03T06:57:54;3.60;;;2.83;;
2706;SDS011;7819;48.046;7.642;2022-08-03T07:00:20;3.60;;;2.43;;
2706;SDS011;7819;48.046;7.642;2022-08-03T07:02:45;3.00;;;2.20;;
2706;SDS011;7819;48.046;7.642;2022-08-03T07:05:10;3.40;;;2.57;;
2706;SDS011;7819;48.046;7.642;2022-08-03T07:07:36;2.60;;;2.40;;
2706;SDS011;7819;48.046;7.642;2022-08-03T07:10:02;3.07;;;1.90;;
2706;SDS011;7819;48.046;7.642;2022-08-03T07:12:27;3.70;;;2.30;;
2706;SDS011;7819;48.046;7.642;2022-08-03T07:14:52;6.33;;;3.20;;
2706;SDS011;7819;48.046;7.642;2022-08-03T07:17:18;3.50;;;2.77;;
2706;SDS011;7819;48.046;7.642;2022-08-03T07:19:43;3.23;;;2.97;;
2706;SDS011;7819;48.046;7.642;2022-08-03T07:22:08;3.10;;;2.73;;
2706;SDS011;7819;48.046;7.642;2022-08-03T07:24:35;3.40;;;2.33;;
2706;SDS011;7819;48.046;7.642;2022-08-03T07:27:00;3.45;;;2.65;;
2706;SDS011;7819;48.046;7.642;2022-08-03T07:29:25;4.17;;;2.43;;
2706;SDS011;7819;48.046;7.642;2022-08-03T07:31:50;3.67;;;3.27;;
2706;SDS011;7819;48.046;7.642;2022-08-03T07:34:15;2.50;;;2.30;;
2706;SDS011;7819;48.046;7.642;2022-08-03T07:36:41;4.33;;;3.40;;
2706;SDS011;7819;48.046;7.642;2022-08-03T07:39:06;3.20;;;2.70;;
2706;SDS011;7819;48.046;7.642;2022-08-03T07:41:31;3.23;;;2.93;;
2706;SDS011;7819;48.046;7.642;2022-08-03T07:43:57;4.30;;;2.73;;
2706;SDS011;7819;48.046;7.642;2022-08-03T07:46:22;3.95;;;2.38;;
2706;SDS011;7819;48.046;7.642;2022-08-03T07:48:47;3.07;;;2.30;;
2706;SDS011;7819;48.046;7.642;2022-08-03T07:51:12;2.80;;;2.60;;
2706;SDS011;7819;48.046;7.642;2022-08-03T07:53:37;3.37;;;2.67;;
2706;SDS011;7819;48.046;7.642;2022-08-03T07:56:02;10.57;;;2.73;;
2706;SDS011;7819;48.046;7.642;2022-08-03T07:58:28;5.27;;;3.40;;
2706;SDS011;7819;48.046;7.642;2022-08-03T08:00:53;2.73;;;2.53;;
2706;SDS011;7819;48.046;7.642;2022-08-03T08:03:18;2.90;;;2.60;;
2706;SDS011;7819;48.046;7.642;2022-08-03T08:05:43;3.20;;;2.87;;
2706;SDS011;7819;48.046;7.642;2022-08-03T08:08:09;4.07;;;2.77;;
2706;SDS011;7819;48.046;7.642;2022-08-03T08:10:34;3.90;;;3.60;;
2706;SDS011;7819;48.046;7.642;2022-08-03T08:13:00;6.63;;;3.30;;
2706;SDS011;7819;48.046;7.642;2022-08-03T08:15:25;3.90;;;2.93;;
2706;SDS011;7819;48.046;7.642;2022-08-03T08:17:52;3.10;;;2.70;;
2706;SDS011;7819;48.046;7.642;2022-08-03T08:20:19;3.53;;;2.93;;
2706;SDS011;7819;48.046;7.642;2022-08-03T08:22:44;4.13;;;2.60;;
2706;SDS011;7819;48.046;7.642;2022-08-03T08:25:10;3.57;;;3.27;;
2706;SDS011;7819;48.046;7.642;2022-08-03T08:27:42;3.13;;;2.83;;
2706;SDS011;7819;48.046;7.642;2022-08-03T08:30:08;2.93;;;2.50;;
2706;SDS011;7819;48.046;7.642;2022-08-03T08:32:34;3.37;;;2.80;;
2706;SDS011;7819;48.046;7.642;2022-08-03T08:35:01;4.40;;;2.63;;
2706;SDS011;7819;48.046;7.642;2022-08-03T08:37:26;3.30;;;3.00;;
2706;SDS011;7819;48.046;7.642;2022-08-03T08:39:51;2.90;;;2.60;;
2706;SDS011;7819;48.046;7.642;2022-08-03T08:42:16;2.47;;;2.27;;
2706;SDS011;7819;48.046;7.642;2022-08-03T08:44:41;3.07;;;2.73;;
2706;SDS011;7819;48.046;7.642;2022-08-03T08:47:07;3.10;;;2.80;;
2706;SDS011;7819;48.046;7.642;2022-08-03T08:49:34;2.60;;;2.40;;
2706;SDS011;7819;48.046;7.642;2022-08-03T08:51:59;3.50;;;3.20;;
2706;SDS011;7819;48.046;7.642;2022-08-03T08:54:25;4.33;;;2.53;;
2706;SDS011;7819;48.046;7.642;2022-08-03T08:56:50;3.17;;;2.80;;
2706;SDS011;7819;48.046;7.642;2022-08-03T08:59:17;3.67;;;2.90;;
2706;SDS011;7819;48.046;7.642;2022-08-03T09:01:42;3.30;;;3.00;;
2706;SDS011;7819;48.046;7.642;2022-08-03T09:04:07;3.40;;;2.80;;
2706;SDS011;7819;48.046;7.642;2022-08-03T09:06:33;3.33;;;3.03;;
2706;SDS011;7819;48.046;7.642;2022-08-03T09:08:58;3.63;;;2.97;;
2706;SDS011;7819;48.046;7.642;2022-08-03T09:11:23;3.10;;;2.80;;
2706;SDS011;7819;48.046;7.642;2022-08-03T09:13:49;2.80;;;2.60;;
2706;SDS011;7819;48.046;7.642;2022-08-03T09:16:18;2.93;;;2.63;;
2706;SDS011;7819;48.046;7.642;2022-08-03T09:18:48;3.10;;;2.90;;
2706;SDS011;7819;48.046;7.642;2022-08-03T09:23:45;3.33;;;3.10;;
2706;SDS011;7819;48.046;7.642;2022-08-03T09:26:10;2.70;;;2.40;;
2706;SDS011;7819;48.046;7.642;2022-08-03T09:28:36;2.53;;;2.33;;
2706;SDS011;7819;48.046;7.642;2022-08-03T09:31:01;2.10;;;1.97;;
2706;SDS011;7819;48.046;7.642;2022-08-03T09:33:26;2.70;;;2.30;;
2706;SDS011;7819;48.046;7.642;2022-08-03T09:35:52;2.93;;;2.43;;
2706;SDS011;7819;48.046;7.642;2022-08-03T09:38:20;3.20;;;2.90;;
2706;SDS011;7819;48.046;7.642;2022-08-03T09:40:49;3.27;;;2.47;;
2706;SDS011;7819;48.046;7.642;2022-08-03T09:43:14;3.10;;;2.90;;
2706;SDS011;7819;48.046;7.642;2022-08-03T09:45:40;3.00;;;1.90;;
2706;SDS011;7819;48.046;7.642;2022-08-03T09:48:25;4.37;;;2.87;;
2706;SDS011;7819;48.046;7.642;2022-08-03T09:50:51;2.37;;;2.17;;
2706;SDS011;7819;48.046;7.642;2022-08-03T09:53:17;2.80;;;2.27;;
2706;SDS011;7819;48.046;7.642;2022-08-03T09:55:50;4.13;;;2.50;;
2706;SDS011;7819;48.046;7.642;2022-08-03T09:58:15;2.80;;;2.33;;
2706;SDS011;7819;48.046;7.642;2022-08-03T10:03:21;2.03;;;1.83;;
2706;SDS011;7819;48.046;7.642;2022-08-03T10:05:46;4.70;;;2.07;;
2706;SDS011;7819;48.046;7.642;2022-08-03T10:08:15;3.03;;;2.10;;
2706;SDS011;7819;48.046;7.642;2022-08-03T10:10:40;2.10;;;1.90;;
2706;SDS011;7819;48.046;7.642;2022-08-03T10:13:06;2.23;;;2.03;;
2706;SDS011;7819;48.046;7.642;2022-08-03T10:15:31;3.10;;;2.00;;
2706;SDS011;7819;48.046;7.642;2022-08-03T10:17:57;2.70;;;1.40;;
2706;SDS011;7819;48.046;7.642;2022-08-03T10:20:22;3.87;;;2.07;;
2706;SDS011;7819;48.046;7.642;2022-08-03T10:22:47;1.53;;;1.43;;
2706;SDS011;7819;48.046;7.642;2022-08-03T10:25:12;4.27;;;1.90;;
2706;SDS011;7819;48.046;7.642;2022-08-03T10:27:39;3.00;;;1.63;;
2706;SDS011;7819;48.046;7.642;2022-08-03T10:30:05;3.20;;;2.00;;
2706;SDS011;7819;48.046;7.642;2022-08-03T10:32:42;2.00;;;1.60;;
2706;SDS011;7819;48.046;7.642;2022-08-03T10:35:10;1.93;;;1.73;;
2706;SDS011;7819;48.046;7.642;2022-08-03T10:37:36;8.50;;;3.40;;
2706;SDS011;7819;48.046;7.642;2022-08-03T10:40:04;2.30;;;1.80;;
2706;SDS011;7819;48.046;7.642;2022-08-03T10:42:31;2.70;;;2.13;;
2706;SDS011;7819;48.046;7.642;2022-08-03T10:45:02;1.77;;;1.67;;
2706;SDS011;7819;48.046;7.642;2022-08-03T10:47:28;1.90;;;1.60;;
2706;SDS011;7819;48.046;7.642;2022-08-03T10:49:53;1.90;;;1.70;;
2706;SDS011;7819;48.046;7.642;2022-08-03T10:52:18;2.23;;;1.70;;
2706;SDS011;7819;48.046;7.642;2022-08-03T10:54:44;2.10;;;1.67;;
2706;SDS011;7819;48.046;7.642;2022-08-03T10:57:44;2.00;;;1.50;;
2706;SDS011;7819;48.046;7.642;2022-08-03T11:00:10;1.77;;;1.60;;
2706;SDS011;7819;48.046;7.642;2022-08-03T11:03:18;1.70;;;1.60;;
2706;SDS011;7819;48.046;7.642;2022-08-03T11:05:27;2.43;;;1.77;;
2706;SDS011;7819;48.046;7.642;2022-08-03T11:10:37;1.67;;;1.57;;
2706;SDS011;7819;48.046;7.642;2022-08-03T11:13:05;1.83;;;1.37;;
2706;SDS011;7819;48.046;7.642;2022-08-03T11:15:31;1.80;;;1.70;;
2706;SDS011;7819;48.046;7.642;2022-08-03T11:18:07;2.27;;;1.93;;
2706;SDS011;7819;48.046;7.642;2022-08-03T11:23:19;1.57;;;1.47;;
2706;SDS011;7819;48.046;7.642;2022-08-03T11:28:28;2.60;;;2.07;;
2706;SDS011;7819;48.046;7.642;2022-08-03T11:30:54;2.70;;;2.00;;
2706;SDS011;7819;48.046;7.642;2022-08-03T11:33:29;2.17;;;1.97;;
2706;SDS011;7819;48.046;7.642;2022-08-03T11:36:00;3.73;;;1.90;;
2706;SDS011;7819;48.046;7.642;2022-08-03T11:38:26;2.23;;;2.00;;
2706;SDS011;7819;48.046;7.642;2022-08-03T11:40:52;2.37;;;2.17;;
2706;SDS011;7819;48.046;7.642;2022-08-03T11:48:25;2.73;;;1.80;;
2706;SDS011;7819;48.046;7.642;2022-08-03T11:50:51;2.73;;;2.53;;
2706;SDS011;7819;48.046;7.642;2022-08-03T11:53:17;2.20;;;2.00;;
2706;SDS011;7819;48.046;7.642;2022-08-03T11:55:43;2.80;;;2.60;;
2706;SDS011;7819;48.046;7.642;2022-08-03T11:58:16;2.93;;;2.00;;
2706;SDS011;7819;48.046;7.642;2022-08-03T12:00:41;4.70;;;2.33;;
2706;SDS011;7819;48.046;7.642;2022-08-03T12:03:11;2.13;;;1.80;;
2706;SDS011;7819;48.046;7.642;2022-08-03T12:05:44;2.30;;;2.10;;
2706;SDS011;7819;48.046;7.642;2022-08-03T12:08:10;2.20;;;1.83;;
2706;SDS011;7819;48.046;7.642;2022-08-03T12:10:36;2.40;;;2.07;;
2706;SDS011;7819;48.046;7.642;2022-08-03T12:13:02;3.13;;;2.10;;
2706;SDS011;7819;48.046;7.642;2022-08-03T12:15:30;1.50;;;1.40;;
2706;SDS011;7819;48.046;7.642;2022-08-03T12:17:57;1.93;;;1.70;;
2706;SDS011;7819;48.046;7.642;2022-08-03T12:20:25;2.27;;;1.80;;
2706;SDS011;7819;48.046;7.642;2022-08-03T12:22:50;2.10;;;1.43;;
2706;SDS011;7819;48.046;7.642;2022-08-03T12:25:25;1.70;;;1.40;;
2706;SDS011;7819;48.046;7.642;2022-08-03T12:27:51;1.73;;;1.63;;
2706;SDS011;7819;48.046;7.642;2022-08-03T12:30:17;1.70;;;1.57;;
2706;SDS011;7819;48.046;7.642;2022-08-03T12:32:42;2.13;;;1.50;;
2706;SDS011;7819;48.046;7.642;2022-08-03T12:35:08;1.63;;;1.50;;
2706;SDS011;7819;48.046;7.642;2022-08-03T12:37:34;2.60;;;1.87;;
2706;SDS011;7819;48.046;7.642;2022-08-03T12:39:59;2.13;;;1.80;;
2706;SDS011;7819;48.046;7.642;2022-08-03T12:42:34;3.20;;;1.70;;
2706;SDS011;7819;48.046;7.642;2022-08-03T12:47:48;1.73;;;1.57;;
2706;SDS011;7819;48.046;7.642;2022-08-03T12:50:22;1.50;;;1.30;;
2706;SDS011;7819;48.046;7.642;2022-08-03T12:52:47;3.27;;;1.73;;
2706;SDS011;7819;48.046;7.642;2022-08-03T12:55:17;2.07;;;1.40;;
2706;SDS011;7819;48.046;7.642;2022-08-03T12:57:43;2.37;;;1.47;;
2706;SDS011;7819;48.046;7.642;2022-08-03T13:00:12;2.07;;;1.30;;
2706;SDS011;7819;48.046;7.642;2022-08-03T13:02:38;1.30;;;1.00;;
2706;SDS011;7819;48.046;7.642;2022-08-03T13:05:09;1.27;;;1.17;;
2706;SDS011;7819;48.046;7.642;2022-08-03T13:07:39;1.10;;;1.00;;
2706;SDS011;7819;48.046;7.642;2022-08-03T13:10:05;3.43;;;1.60;;
2706;SDS011;7819;48.046;7.642;2022-08-03T13:12:30;1.60;;;1.10;;
2706;SDS011;7819;48.046;7.642;2022-08-03T13:14:57;1.30;;;1.03;;
2706;SDS011;7819;48.046;7.642;2022-08-03T13:17:23;1.20;;;1.10;;
2706;SDS011;7819;48.046;7.642;2022-08-03T13:19:48;1.63;;;1.10;;
2706;SDS011;7819;48.046;7.642;2022-08-03T13:22:18;1.70;;;0.93;;
2706;SDS011;7819;48.046;7.642;2022-08-03T13:24:44;0.90;;;0.70;;
2706;SDS011;7819;48.046;7.642;2022-08-03T13:27:09;1.20;;;0.80;;
2706;SDS011;7819;48.046;7.642;2022-08-03T13:29:35;1.20;;;0.70;;
2706;SDS011;7819;48.046;7.642;2022-08-03T13:32:01;1.37;;;0.80;;
2706;SDS011;7819;48.046;7.642;2022-08-03T13:34:26;1.07;;;0.70;;
2706;SDS011;7819;48.046;7.642;2022-08-03T13:36:51;1.73;;;1.00;;
2706;SDS011;7819;48.046;7.642;2022-08-03T13:39:16;0.77;;;0.60;;
2706;SDS011;7819;48.046;7.642;2022-08-03T13:41:43;1.43;;;0.80;;
2706;SDS011;7819;48.046;7.642;2022-08-03T13:44:08;4.00;;;1.60;;
2706;SDS011;7819;48.046;7.642;2022-08-03T13:46:34;1.70;;;1.40;;
2706;SDS011;7819;48.046;7.642;2022-08-03T13:48:59;2.20;;;1.80;;
2706;SDS011;7819;48.046;7.642;2022-08-03T13:51:24;1.93;;;1.47;;
2706;SDS011;7819;48.046;7.642;2022-08-03T13:53:49;1.70;;;1.30;;
2706;SDS011;7819;48.046;7.642;2022-08-03T13:56:15;2.10;;;1.70;;
2706;SDS011;7819;48.046;7.642;2022-08-03T13:58:40;1.40;;;1.23;;
2706;SDS011;7819;48.046;7.642;2022-08-03T14:01:05;2.40;;;1.70;;
2706;SDS011;7819;48.046;7.642;2022-08-03T14:03:30;1.67;;;1.37;;
2706;SDS011;7819;48.046;7.642;2022-08-03T14:05:55;2.03;;;1.83;;
2706;SDS011;7819;48.046;7.642;2022-08-03T14:08:20;1.57;;;1.47;;
2706;SDS011;7819;48.046;7.642;2022-08-03T14:10:46;1.70;;;1.60;;
2706;SDS011;7819;48.046;7.642;2022-08-03T14:13:11;1.73;;;1.30;;
2706;SDS011;7819;48.046;7.642;2022-08-03T14:15:37;2.40;;;2.20;;
2706;SDS011;7819;48.046;7.642;2022-08-03T14:18:02;2.00;;;1.80;;
2706;SDS011;7819;48.046;7.642;2022-08-03T14:20:27;2.17;;;1.90;;
2706;SDS011;7819;48.046;7.642;2022-08-03T14:22:53;2.03;;;1.83;;
2706;SDS011;7819;48.046;7.642;2022-08-03T14:25:19;2.30;;;2.10;;
2706;SDS011;7819;48.046;7.642;2022-08-03T14:27:44;2.40;;;2.10;;
2706;SDS011;7819;48.046;7.642;2022-08-03T14:30:10;1.93;;;1.80;;
2706;SDS011;7819;48.046;7.642;2022-08-03T14:32:35;3.50;;;2.13;;
2706;SDS011;7819;48.046;7.642;2022-08-03T14:35:00;2.40;;;2.20;;
2706;SDS011;7819;48.046;7.642;2022-08-03T14:37:25;2.40;;;1.65;;
2706;SDS011;7819;48.046;7.642;2022-08-03T14:39:50;2.20;;;2.00;;
2706;SDS011;7819;48.046;7.642;2022-08-03T14:42:15;2.40;;;1.90;;
2706;SDS011;7819;48.046;7.642;2022-08-03T14:44:41;1.90;;;1.80;;
2706;SDS011;7819;48.046;7.642;2022-08-03T14:47:06;2.43;;;1.77;;
2706;SDS011;7819;48.046;7.642;2022-08-03T14:49:31;1.97;;;1.77;;
2706;SDS011;7819;48.046;7.642;2022-08-03T14:51:56;3.30;;;1.73;;
2706;SDS011;7819;48.046;7.642;2022-08-03T14:54:21;2.30;;;1.90;;
2706;SDS011;7819;48.046;7.642;2022-08-03T14:56:47;2.47;;;1.80;;
2706;SDS011;7819;48.046;7.642;2022-08-03T14:59:12;2.10;;;1.60;;
2706;SDS011;7819;48.046;7.642;2022-08-03T15:01:37;1.90;;;1.67;;
2706;SDS011;7819;48.046;7.642;2022-08-03T15:04:02;2.30;;;1.67;;
2706;SDS011;7819;48.046;7.642;2022-08-03T15:06:27;1.80;;;1.70;;
2706;SDS011;7819;48.046;7.642;2022-08-03T15:08:52;2.80;;;1.60;;
2706;SDS011;7819;48.046;7.642;2022-08-03T15:11:18;2.80;;;2.40;;
2706;SDS011;7819;48.046;7.642;2022-08-03T15:13:43;2.00;;;1.50;;
2706;SDS011;7819;48.046;7.642;2022-08-03T15:16:08;3.03;;;1.83;;
2706;SDS011;7819;48.046;7.642;2022-08-03T15:18:33;3.30;;;1.80;;
2706;SDS011;7819;48.046;7.642;2022-08-03T15:20:59;2.27;;;2.07;;
2706;SDS011;7819;48.046;7.642;2022-08-03T15:23:24;3.23;;;1.87;;
2706;SDS011;7819;48.046;7.642;2022-08-03T15:25:50;2.37;;;1.90;;
2706;SDS011;7819;48.046;7.642;2022-08-03T15:28:15;2.57;;;2.07;;
2706;SDS011;7819;48.046;7.642;2022-08-03T15:30:40;2.93;;;2.70;;
2706;SDS011;7819;48.046;7.642;2022-08-03T15:33:06;3.83;;;1.90;;
2706;SDS011;7819;48.046;7.642;2022-08-03T15:35:31;1.63;;;1.53;;
2706;SDS011;7819;48.046;7.642;2022-08-03T15:37:56;2.17;;;1.97;;
2706;SDS011;7819;48.046;7.642;2022-08-03T15:40:22;2.83;;;2.27;;